»·PEaware :: DFGCW KFHR-KGEG

DFGCW :: KFHR-KGEG

FLIGHT INFORMATION

Flight Status: Arrived
Operator: Unknown
More flights by this operator :: More flights under this callsign
Pilot: Klaus A. (15485)
Aircraft: PILATUS PC-12 EAGLE
(PC12)
More flights by this aircraft type
Origin: KFHR Friday Harbor
United States
Destination: KGEG Spokane Intl
United States
More flights between these airports :: More routes between these airports
Route: FHR CVV V287 PAE V23 SEA V120 EAT V120 EPH ZOOMR1
File this flight plan on PilotEdge
Remarks:
Altitude:
(Current/Filed)
25,000ft
Speed:
(Current/Filed)
270kts
Departed: 22-Apr-20 08:42 AM
Arrived: 22-Apr-20 10:13 AM
Distance/Time
Traveled:
227nm/1:31
Distance/Time
To Go:
Arrived

Flight Plot

Page will automatically refresh every two minutes.

Flight plan parsing failed; only flown route is shown


Map Options




Map Legend


Flown Route
Filed Route
Departure Airport
Arrival Airport
Navaid (VOR, NDB)
Fix

Horizontal Profiles

Position Reports

Time Latitude Longitude Heading Altitude Ground
Speed
22-Apr-20 08:06 48.527363 -123.026090 180 117ft 0kts
22-Apr-20 08:07 48.527363 -123.026090 180 117ft 0kts
22-Apr-20 08:08 48.527363 -123.026090 180 117ft 0kts
22-Apr-20 08:09 48.527363 -123.026090 180 117ft 0kts
22-Apr-20 08:10 48.527363 -123.026090 180 117ft 0kts
22-Apr-20 08:11 48.527363 -123.026090 180 117ft 0kts
22-Apr-20 08:12 48.527363 -123.026090 180 117ft 0kts
22-Apr-20 08:13 48.527363 -123.026090 180 117ft 0kts
22-Apr-20 08:14 48.527363 -123.026090 180 117ft 0kts
22-Apr-20 08:15 48.527363 -123.026090 180 117ft 0kts
22-Apr-20 08:16 48.527363 -123.026090 179 117ft 0kts
22-Apr-20 08:17 48.527363 -123.026090 179 117ft 0kts
22-Apr-20 08:18 48.527363 -123.026090 179 117ft 0kts
22-Apr-20 08:19 48.527363 -123.026090 179 117ft 0kts
22-Apr-20 08:20 48.527363 -123.026090 179 117ft 0kts
22-Apr-20 08:21 48.527363 -123.026090 179 117ft 0kts
22-Apr-20 08:22 48.527363 -123.026090 179 117ft 0kts
22-Apr-20 08:23 48.527363 -123.026090 179 117ft 0kts
22-Apr-20 08:24 48.527363 -123.026090 179 117ft 0kts
22-Apr-20 08:25 48.527363 -123.026090 179 117ft 0kts
22-Apr-20 08:26 48.527363 -123.026090 179 117ft 0kts
22-Apr-20 08:27 48.527363 -123.026090 179 117ft 0kts
22-Apr-20 08:28 48.527363 -123.026090 179 117ft 0kts
22-Apr-20 08:29 48.527363 -123.026090 179 117ft 0kts
22-Apr-20 08:30 48.527363 -123.026090 179 117ft 0kts
22-Apr-20 08:31 48.527363 -123.026090 179 117ft 0kts
22-Apr-20 08:32 48.526676 -123.025189 57 117ft 2kts
22-Apr-20 08:33 48.526587 -123.024880 235 117ft 0kts
22-Apr-20 08:34 48.526883 -123.026054 290 117ft 9kts
22-Apr-20 08:35 48.526627 -123.025745 141 117ft 3kts
22-Apr-20 08:36 48.526567 -123.025301 85 117ft 0kts
22-Apr-20 08:37 48.526567 -123.025301 84 117ft 0kts
22-Apr-20 08:38 48.526567 -123.025301 84 117ft 0kts
22-Apr-20 08:39 48.526567 -123.025301 84 117ft 0kts
22-Apr-20 08:40 48.526552 -123.025106 102 117ft 5kts
22-Apr-20 08:41 48.519991 -123.024222 180 124ft 104kts
22-Apr-20 08:42 48.484702 -123.015812 122 1554ft 141kts
22-Apr-20 08:43 48.502828 -122.989436 317 3185ft 145kts
22-Apr-20 08:44 48.513100 -123.049998 289 4856ft 152kts
22-Apr-20 08:45 48.547529 -123.053512 60 6387ft 154kts
22-Apr-20 08:46 48.523257 -123.020581 192 7957ft 159kts
22-Apr-20 08:47 48.487814 -122.999126 122 9446ft 151kts
22-Apr-20 08:48 48.453655 -122.958060 142 10714ft 159kts
22-Apr-20 08:49 48.417838 -122.917820 142 11970ft 162kts
22-Apr-20 08:50 48.381406 -122.876985 142 13119ft 165kts
22-Apr-20 08:51 48.344144 -122.835297 142 14182ft 168kts
22-Apr-20 08:52 48.306393 -122.793142 142 15241ft 171kts
22-Apr-20 08:53 48.267870 -122.750206 142 16215ft 174kts
22-Apr-20 08:54 48.230102 -122.704144 136 17209ft 176kts
22-Apr-20 08:55 48.193929 -122.654093 136 18141ft 179kts
22-Apr-20 08:56 48.157013 -122.603080 136 18994ft 181kts
22-Apr-20 08:57 48.119597 -122.551481 136 19764ft 184kts
22-Apr-20 08:58 48.081905 -122.499600 136 20459ft 186kts
22-Apr-20 08:59 48.043374 -122.446697 136 21101ft 188kts
22-Apr-20 09:00 48.004610 -122.393576 136 21686ft 190kts
22-Apr-20 09:01 47.965549 -122.340164 136 22216ft 192kts
22-Apr-20 09:02 47.925956 -122.286172 138 22704ft 193kts
22-Apr-20 09:03 47.872739 -122.281137 182 23100ft 197kts
22-Apr-20 09:04 47.817624 -122.284586 182 23507ft 198kts
22-Apr-20 09:05 47.762262 -122.288215 182 23878ft 200kts
22-Apr-20 09:06 47.710233 -122.291638 182 24197ft 201kts
22-Apr-20 09:08 47.654197 -122.295315 182 24562ft 202kts
22-Apr-20 09:09 47.598057 -122.298997 182 25015ft 204kts
22-Apr-20 09:10 47.539948 -122.302804 182 25189ft 217kts
22-Apr-20 09:11 47.477381 -122.306886 182 25186ft 232kts
22-Apr-20 09:12 47.435509 -122.259473 91 25192ft 231kts
22-Apr-20 09:13 47.434165 -122.163049 90 25175ft 238kts
22-Apr-20 09:14 47.433184 -122.064399 90 25183ft 241kts
22-Apr-20 09:15 47.432144 -121.964912 90 25183ft 243kts
22-Apr-20 09:16 47.431013 -121.864907 90 25182ft 242kts
22-Apr-20 09:17 47.429807 -121.765710 90 25182ft 240kts
22-Apr-20 09:18 47.428561 -121.670017 90 25146ft 240kts
22-Apr-20 09:19 47.427200 -121.571703 90 25146ft 239kts
22-Apr-20 09:20 47.425761 -121.474000 90 25146ft 238kts
22-Apr-20 09:21 47.424234 -121.375884 90 25146ft 238kts
22-Apr-20 09:22 47.422635 -121.278485 90 25146ft 238kts
22-Apr-20 09:23 47.420949 -121.180834 90 25146ft 238kts
22-Apr-20 09:23 47.419477 -121.099280 90 25146ft 238kts
22-Apr-20 09:25 47.417327 -120.985478 90 25146ft 238kts
22-Apr-20 09:26 47.415389 -120.887688 90 25146ft 238kts
22-Apr-20 09:26 47.413709 -120.806135 90 25146ft 238kts
22-Apr-20 09:27 47.411618 -120.708308 90 25138ft 238kts
22-Apr-20 09:29 47.409069 -120.594005 90 25137ft 238kts
22-Apr-20 09:29 47.407280 -120.516686 90 25137ft 238kts
22-Apr-20 09:30 47.404941 -120.418833 90 25137ft 238kts
22-Apr-20 09:31 47.402512 -120.320768 91 25137ft 239kts
22-Apr-20 09:32 47.399998 -120.222584 91 25137ft 239kts
22-Apr-20 09:33 47.397570 -120.124617 91 25137ft 239kts
22-Apr-20 09:34 47.395071 -120.026338 91 25137ft 239kts
22-Apr-20 09:35 47.392500 -119.928551 91 25137ft 239kts
22-Apr-20 09:36 47.389841 -119.830473 91 25144ft 238kts
22-Apr-20 09:37 47.387099 -119.732498 91 25146ft 239kts
22-Apr-20 09:38 47.384274 -119.634515 91 25146ft 239kts
22-Apr-20 09:39 47.381296 -119.534375 91 24283ft 244kts
22-Apr-20 09:40 47.378267 -119.435234 91 23279ft 240kts
22-Apr-20 09:41 47.382009 -119.337487 85 22278ft 237kts
22-Apr-20 09:42 47.386507 -119.240342 85 21283ft 237kts
22-Apr-20 09:43 47.390896 -119.144032 85 20260ft 226kts
22-Apr-20 09:44 47.394856 -119.055697 85 19233ft 207kts
22-Apr-20 09:45 47.398481 -118.973262 85 18216ft 196kts
22-Apr-20 09:46 47.401885 -118.894636 85 17208ft 189kts
22-Apr-20 09:47 47.405145 -118.818135 85 16201ft 184kts
22-Apr-20 09:48 47.408291 -118.743153 85 15199ft 182kts
22-Apr-20 09:49 47.411355 -118.668968 85 14203ft 181kts
22-Apr-20 09:50 47.414386 -118.594448 85 13209ft 184kts
22-Apr-20 09:51 47.417345 -118.520488 85 12758ft 184kts
22-Apr-20 09:52 47.420479 -118.440635 85 11788ft 199kts
22-Apr-20 09:53 47.423602 -118.359848 85 10780ft 194kts
22-Apr-20 09:54 47.430916 -118.283644 72 9794ft 189kts
22-Apr-20 09:55 47.445999 -118.210611 72 8999ft 175kts
22-Apr-20 09:56 47.459659 -118.144413 72 9000ft 163kts
22-Apr-20 09:57 47.472900 -118.080036 72 8847ft 169kts
22-Apr-20 09:58 47.486474 -118.013882 72 8047ft 167kts
22-Apr-20 09:59 47.499914 -117.948136 72 7247ft 166kts
22-Apr-20 10:00 47.523436 -117.890230 54 6454ft 165kts
22-Apr-20 10:01 47.549875 -117.834465 54 5657ft 166kts
22-Apr-20 10:02 47.576314 -117.778693 54 5000ft 157kts
22-Apr-20 10:03 47.598081 -117.732623 54 5006ft 127kts
22-Apr-20 10:04 47.618659 -117.688736 54 5003ft 131kts
22-Apr-20 10:05 47.639652 -117.643937 54 5003ft 132kts
22-Apr-20 10:06 47.660671 -117.599084 54 5002ft 132kts
22-Apr-20 10:07 47.681388 -117.553889 56 4534ft 129kts
22-Apr-20 10:08 47.697280 -117.513676 96 3796ft 117kts
22-Apr-20 10:09 47.680457 -117.474124 120 3216ft 103kts
22-Apr-20 10:10 47.656618 -117.479280 230 3173ft 112kts
22-Apr-20 10:11 47.634250 -117.513446 225 2562ft 110kts
22-Apr-20 10:12 47.620652 -117.532034 133 2389ft 0kts
22-Apr-20 10:13 47.620652 -117.532034 132 2389ft 0kts
22-Apr-20 10:14 47.620587 -117.531844 113 2389ft 2kts
22-Apr-20 10:15 47.621086 -117.528931 143 2389ft 14kts
22-Apr-20 10:16 47.620853 -117.527432 79 2389ft 0kts
22-Apr-20 10:17 47.620853 -117.527432 79 2389ft 0kts
22-Apr-20 10:18 47.620853 -117.527432 79 2389ft 0kts
22-Apr-20 10:19 47.620853 -117.527432 79 2389ft 0kts
22-Apr-20 10:20 47.620853 -117.527432 79 2389ft 0kts
22-Apr-20 10:21 47.620853 -117.527432 79 2389ft 0kts
22-Apr-20 10:22 47.620853 -117.527432 79 2389ft 0kts
22-Apr-20 10:23 47.620853 -117.527432 79 2389ft 0kts
22-Apr-20 10:24 47.620853 -117.527432 79 2389ft 0kts
22-Apr-20 10:25 47.620853 -117.527432 79 2389ft 0kts
22-Apr-20 10:26 47.620853 -117.527432 79 2389ft 0kts

Navigation Log

Ident Type
Flight plan parsing failed, navigation log unavailable